createdAt,value
2023-02-08T00:01:13.840Z,7.90
2023-02-08T00:03:41.751Z,7.90
2023-02-08T00:06:10.372Z,8.03
2023-02-08T00:08:39.032Z,6.87
2023-02-08T00:11:07.473Z,8.57
2023-02-08T00:13:35.772Z,7.07
2023-02-08T00:16:03.891Z,7.90
2023-02-08T00:18:33.189Z,7.83
2023-02-08T00:21:01.054Z,6.43
2023-02-08T00:23:29.164Z,7.07
2023-02-08T00:25:56.967Z,7.30
2023-02-08T00:28:24.817Z,7.30
2023-02-08T00:30:53.333Z,7.23
2023-02-08T00:33:21.314Z,7.17
2023-02-08T00:35:50.544Z,7.93
2023-02-08T00:38:18.380Z,7.93
2023-02-08T00:40:46.179Z,7.47
2023-02-08T00:43:14.139Z,6.53
2023-02-08T00:45:41.950Z,6.30
2023-02-08T00:48:09.764Z,5.90
2023-02-08T00:50:38.203Z,6.63
2023-02-08T00:53:07.562Z,6.50
2023-02-08T00:55:35.411Z,6.17
2023-02-08T00:58:03.235Z,7.70
2023-02-08T01:00:31.177Z,6.77
2023-02-08T01:02:59.093Z,6.43
2023-02-08T01:05:26.836Z,6.87
2023-02-08T01:07:54.589Z,6.67
2023-02-08T01:10:23.684Z,7.03
2023-02-08T01:12:51.448Z,7.13
2023-02-08T01:15:19.436Z,6.40
2023-02-08T01:17:47.283Z,7.00
2023-02-08T01:20:15.119Z,6.13
2023-02-08T01:22:42.949Z,5.83
2023-02-08T01:25:11.124Z,6.50
2023-02-08T01:27:40.452Z,6.40
2023-02-08T01:30:09.703Z,5.43
2023-02-08T01:32:37.612Z,6.17
2023-02-08T01:35:05.940Z,5.80
2023-02-08T01:37:33.732Z,5.37
2023-02-08T01:40:01.565Z,4.97
2023-02-08T01:42:29.437Z,6.20
2023-02-08T01:45:30.007Z,5.17
2023-02-08T01:48:11.763Z,4.97
2023-02-08T01:50:47.573Z,5.90
2023-02-08T01:53:15.815Z,4.97
2023-02-08T01:55:48.138Z,6.00
2023-02-08T01:58:17.145Z,4.97
2023-02-08T02:00:47.125Z,4.93
2023-02-08T02:03:15.678Z,5.13
2023-02-08T02:05:47.221Z,5.20
2023-02-08T02:08:15.154Z,5.63
2023-02-08T02:10:43.742Z,5.60
2023-02-08T02:13:14.874Z,5.10
2023-02-08T02:15:44.583Z,4.73
2023-02-08T02:18:18.108Z,5.63
2023-02-08T02:21:06.535Z,4.67
2023-02-08T02:23:59.228Z,5.20
2023-02-08T02:26:59.052Z,5.00
2023-02-08T02:29:48.197Z,4.87
2023-02-08T02:32:29.996Z,5.93
2023-02-08T02:35:03.733Z,5.63
2023-02-08T02:37:49.112Z,5.80
2023-02-08T02:40:23.542Z,4.83
2023-02-08T02:43:14.756Z,4.47
2023-02-08T02:45:50.858Z,4.90
2023-02-08T02:48:30.983Z,5.00
2023-02-08T02:51:03.851Z,5.10
2023-02-08T02:53:48.629Z,4.90
2023-02-08T02:56:20.648Z,4.67
2023-02-08T02:58:48.495Z,5.40
2023-02-08T03:01:25.948Z,5.40
2023-02-08T03:03:55.583Z,5.07
2023-02-08T03:06:39.540Z,5.63
2023-02-08T03:09:32.018Z,5.93
2023-02-08T03:12:12.808Z,5.50
2023-02-08T03:14:52.696Z,4.67
2023-02-08T03:17:36.013Z,5.53
2023-02-08T03:20:10.156Z,4.90
2023-02-08T03:22:46.238Z,5.33
2023-02-08T03:25:20.867Z,4.87
2023-02-08T03:27:57.383Z,5.30
2023-02-08T03:30:31.851Z,4.73
2023-02-08T03:33:06.131Z,5.63
2023-02-08T03:35:40.977Z,4.13
2023-02-08T03:38:11.885Z,5.33
2023-02-08T03:40:43.703Z,5.90
2023-02-08T03:43:16.701Z,5.80
2023-02-08T03:45:48.603Z,4.83
2023-02-08T03:48:19.193Z,5.50
2023-02-08T03:50:52.593Z,5.63
2023-02-08T03:53:23.425Z,5.10
2023-02-08T03:55:56.972Z,5.83
2023-02-08T03:58:27.180Z,5.00
2023-02-08T04:01:00.673Z,4.97
2023-02-08T04:03:30.829Z,5.00
2023-02-08T04:06:00.202Z,5.30
2023-02-08T04:08:28.082Z,5.23
2023-02-08T04:10:55.942Z,5.43
2023-02-08T04:13:23.707Z,4.80
2023-02-08T04:15:51.581Z,4.90
2023-02-08T04:18:19.454Z,5.40
2023-02-08T04:20:47.230Z,4.47
2023-02-08T04:23:16.507Z,13.73
2023-02-08T04:25:44.657Z,8.73
2023-02-08T04:28:12.563Z,5.30
2023-02-08T04:30:40.662Z,5.33
2023-02-08T04:33:08.636Z,5.80
2023-02-08T04:35:36.429Z,5.00
2023-02-08T04:38:04.830Z,6.47
2023-02-08T04:40:33.971Z,5.27
2023-02-08T04:43:02.375Z,4.77
2023-02-08T04:45:32.088Z,5.40
2023-02-08T04:48:01.765Z,4.77
2023-02-08T04:50:29.783Z,5.77
2023-02-08T04:52:57.529Z,6.47
2023-02-08T04:55:25.434Z,5.80
2023-02-08T04:57:54.736Z,5.23
2023-02-08T05:00:22.553Z,6.27
2023-02-08T05:02:53.966Z,6.47
2023-02-08T05:05:21.913Z,6.73
2023-02-08T05:07:49.761Z,8.03
2023-02-08T05:10:17.962Z,4.60
2023-02-08T05:12:46.250Z,7.80
2023-02-08T05:15:15.454Z,12.60
2023-02-08T05:17:43.391Z,9.93
2023-02-08T05:20:13.264Z,10.23
2023-02-08T05:22:41.342Z,9.73
2023-02-08T05:25:09.900Z,9.67
2023-02-08T05:27:37.846Z,9.50
2023-02-08T05:30:06.517Z,10.43
2023-02-08T05:32:35.636Z,8.83
2023-02-08T05:35:03.387Z,7.33
2023-02-08T05:37:31.168Z,7.60
2023-02-08T05:39:59.172Z,6.80
2023-02-08T05:42:27.116Z,7.47
2023-02-08T05:44:54.933Z,5.70
2023-02-08T05:47:22.892Z,6.47
2023-02-08T05:49:52.057Z,6.40
2023-02-08T05:52:19.840Z,5.23
2023-02-08T05:54:47.705Z,5.67
2023-02-08T05:57:15.467Z,4.70
2023-02-08T05:59:43.237Z,5.23
2023-02-08T06:02:10.994Z,5.20
2023-02-08T06:04:39.265Z,5.87
2023-02-08T06:07:08.455Z,5.03
2023-02-08T06:09:36.226Z,5.07
2023-02-08T06:12:04.038Z,5.87
2023-02-08T06:14:31.762Z,5.97
2023-02-08T06:16:59.830Z,5.23
2023-02-08T06:19:27.555Z,6.27
2023-02-08T06:21:56.601Z,5.83
2023-02-08T06:24:25.729Z,5.10
2023-02-08T06:26:53.640Z,4.93
2023-02-08T06:29:21.379Z,5.60
2023-02-08T06:31:49.357Z,4.67
2023-02-08T06:34:17.248Z,6.33
2023-02-08T06:36:45.714Z,5.73
2023-02-08T06:39:13.530Z,5.40
2023-02-08T06:41:42.633Z,7.57
2023-02-08T06:44:10.404Z,5.73
2023-02-08T06:46:38.200Z,6.43
2023-02-08T06:49:05.951Z,5.70
2023-02-08T06:51:33.771Z,5.27
2023-02-08T06:54:01.546Z,6.93
2023-02-08T06:56:29.323Z,7.63
2023-02-08T06:58:58.788Z,5.53
2023-02-08T07:01:26.731Z,5.87
2023-02-08T07:03:54.594Z,6.53
2023-02-08T07:06:22.461Z,5.70
2023-02-08T07:08:50.352Z,6.63
2023-02-08T07:11:20.775Z,6.77
2023-02-08T07:13:49.491Z,6.67
2023-02-08T07:16:19.295Z,7.17
2023-02-08T07:18:47.324Z,6.90
2023-02-08T07:21:15.120Z,6.23
2023-02-08T07:23:43.012Z,7.70
2023-02-08T07:26:14.370Z,5.83
2023-02-08T07:28:42.481Z,7.30
2023-02-08T07:31:11.670Z,5.63
2023-02-08T07:33:40.948Z,5.77
2023-02-08T07:36:10.876Z,5.40
2023-02-08T07:38:39.115Z,6.53
2023-02-08T07:41:09.003Z,6.20
2023-02-08T07:43:37.604Z,6.90
2023-02-08T07:46:09.093Z,8.27
2023-02-08T07:48:40.041Z,6.77
2023-02-08T07:51:10.275Z,7.60
2023-02-08T07:53:38.653Z,6.40
2023-02-08T07:56:06.808Z,7.87
2023-02-08T07:58:34.706Z,7.23
2023-02-08T08:01:15.809Z,7.33
2023-02-08T08:03:49.316Z,8.23
2023-02-08T08:06:18.652Z,7.73
2023-02-08T08:08:47.583Z,9.20
2023-02-08T08:11:15.685Z,7.67
2023-02-08T08:13:43.560Z,7.00
2023-02-08T08:16:11.473Z,10.27
2023-02-08T08:18:39.315Z,9.33
2023-02-08T08:21:07.858Z,8.00
2023-02-08T08:23:37.161Z,7.63
2023-02-08T08:26:09.252Z,7.83
2023-02-08T08:28:37.873Z,7.37
2023-02-08T08:31:11.582Z,7.53
2023-02-08T08:33:39.633Z,7.83
2023-02-08T08:36:08.522Z,6.10
2023-02-08T08:38:38.615Z,8.10
2023-02-08T08:41:09.013Z,6.53
2023-02-08T08:43:36.790Z,7.23
2023-02-08T08:46:06.598Z,6.90
2023-02-08T08:48:34.676Z,7.07
2023-02-08T08:51:02.528Z,8.23
2023-02-08T08:53:30.505Z,6.70
2023-02-08T08:55:59.649Z,6.67
2023-02-08T08:58:27.573Z,6.93
2023-02-08T09:00:57.339Z,6.73
2023-02-08T09:03:25.265Z,6.57
2023-02-08T09:05:53.185Z,6.90
2023-02-08T09:08:21.060Z,6.07
2023-02-08T09:10:48.827Z,7.53
2023-02-08T09:13:19.777Z,6.97
2023-02-08T09:15:48.569Z,7.30
2023-02-08T09:18:16.715Z,8.37
2023-02-08T09:20:44.872Z,7.37
2023-02-08T09:23:14.401Z,6.63
2023-02-08T09:25:42.208Z,7.40
2023-02-08T09:28:10.039Z,8.00
2023-02-08T09:30:39.158Z,8.33
2023-02-08T09:33:07.024Z,6.70
2023-02-08T09:35:34.759Z,7.47
2023-02-08T09:38:04.424Z,5.40
2023-02-08T09:40:38.971Z,6.67
2023-02-08T09:43:13.264Z,7.90
2023-02-08T09:45:59.192Z,6.40
2023-02-08T09:48:32.557Z,6.83
2023-02-08T09:51:05.702Z,7.07
2023-02-08T09:53:36.304Z,6.87
2023-02-08T09:56:06.272Z,6.43
2023-02-08T09:58:38.743Z,7.50
2023-02-08T10:01:18.466Z,5.37
2023-02-08T10:03:47.853Z,6.53
2023-02-08T10:06:18.209Z,6.50
2023-02-08T10:08:48.861Z,6.13
2023-02-08T10:11:48.947Z,6.03
2023-02-08T10:14:34.739Z,5.60
2023-02-08T10:17:16.403Z,6.13
2023-02-08T10:20:00.782Z,5.77
2023-02-08T10:22:38.982Z,5.43
2023-02-08T10:25:24.487Z,3.53
2023-02-08T10:28:06.247Z,3.30
2023-02-08T10:30:42.782Z,2.80
2023-02-08T10:33:19.611Z,2.90
2023-02-08T10:35:50.889Z,3.53
2023-02-08T10:38:29.707Z,3.50
2023-02-08T10:41:04.386Z,3.33
2023-02-08T10:43:38.663Z,2.87
2023-02-08T10:46:12.835Z,2.37
2023-02-08T10:48:53.973Z,3.20
2023-02-08T10:51:22.731Z,3.17
2023-02-08T10:53:50.509Z,3.27
2023-02-08T10:56:37.501Z,3.10
2023-02-08T10:59:14.427Z,2.60
2023-02-08T11:01:42.773Z,2.70
2023-02-08T11:04:14.128Z,3.50
2023-02-08T11:06:43.588Z,3.10
2023-02-08T11:09:25.257Z,2.87
2023-02-08T11:11:53.819Z,3.63
2023-02-08T11:14:32.618Z,2.83
2023-02-08T11:17:05.880Z,3.60
2023-02-08T11:19:42.434Z,2.23
2023-02-08T11:22:17.505Z,2.43
2023-02-08T11:24:50.338Z,3.20
2023-02-08T11:27:29.776Z,2.03
2023-02-08T11:30:20.938Z,3.00
2023-02-08T11:32:50.277Z,2.67
2023-02-08T11:35:25.035Z,3.07
2023-02-08T11:37:55.069Z,3.33
2023-02-08T11:40:26.793Z,2.37
2023-02-08T11:42:55.402Z,2.30
2023-02-08T11:45:26.422Z,3.00
2023-02-08T11:47:54.825Z,3.03
2023-02-08T11:50:31.258Z,2.67
2023-02-08T11:53:00.426Z,2.90
2023-02-08T11:55:29.898Z,3.30
2023-02-08T11:58:01.435Z,2.50
2023-02-08T12:00:31.582Z,2.80
2023-02-08T12:03:01.698Z,2.40
2023-02-08T12:05:41.450Z,3.10
2023-02-08T12:08:17.649Z,2.97
2023-02-08T12:11:14.536Z,2.10
2023-02-08T12:13:57.505Z,2.10
2023-02-08T12:16:40.361Z,2.20
2023-02-08T12:19:33.697Z,2.73
2023-02-08T12:22:10.462Z,3.27
2023-02-08T12:24:48.207Z,2.70
2023-02-08T12:27:28.229Z,2.43
2023-02-08T12:30:05.108Z,2.50
2023-02-08T12:33:02.080Z,3.00
2023-02-08T12:36:07.513Z,1.90
2023-02-08T12:39:18.468Z,3.30
2023-02-08T12:42:06.044Z,3.00
2023-02-08T12:44:42.009Z,3.43
2023-02-08T12:47:26.980Z,3.20
2023-02-08T12:50:09.206Z,2.60
2023-02-08T12:52:41.145Z,4.13
2023-02-08T12:55:18.785Z,3.20
2023-02-08T12:57:50.613Z,4.27
2023-02-08T13:00:22.861Z,4.43
2023-02-08T13:02:57.687Z,3.90
2023-02-08T13:05:30.989Z,3.97
2023-02-08T13:08:03.896Z,3.57
2023-02-08T13:10:37.556Z,3.40
2023-02-08T13:13:14.355Z,4.20
2023-02-08T13:15:45.610Z,4.67
2023-02-08T13:18:18.433Z,4.60
2023-02-08T13:20:50.527Z,3.73
2023-02-08T13:23:25.501Z,3.40
2023-02-08T13:25:59.119Z,3.33
2023-02-08T13:28:28.075Z,3.90
2023-02-08T13:31:01.953Z,4.60
2023-02-08T13:33:35.918Z,4.50
2023-02-08T13:36:04.480Z,4.17
2023-02-08T13:38:34.754Z,4.03
2023-02-08T13:41:15.567Z,4.80
2023-02-08T13:43:48.430Z,4.03
2023-02-08T13:46:17.889Z,5.40
2023-02-08T13:48:48.716Z,4.50
2023-02-08T13:52:03.274Z,4.43
2023-02-08T13:54:31.061Z,4.20
2023-02-08T13:57:00.245Z,4.57
2023-02-08T13:59:35.023Z,4.23
2023-02-08T14:02:28.137Z,4.10
2023-02-08T14:05:15.388Z,4.60
2023-02-08T14:07:45.910Z,4.77
2023-02-08T14:10:37.361Z,4.30
2023-02-08T14:13:17.097Z,3.70
2023-02-08T14:15:45.629Z,5.23
2023-02-08T14:18:26.443Z,5.37
2023-02-08T14:21:03.555Z,4.37
2023-02-08T14:23:33.599Z,3.53
2023-02-08T14:26:08.271Z,4.00
2023-02-08T14:28:40.382Z,3.47
2023-02-08T14:31:11.837Z,4.70
2023-02-08T14:33:42.321Z,3.87
2023-02-08T14:36:26.300Z,4.70
2023-02-08T14:39:07.279Z,4.73
2023-02-08T14:42:05.374Z,5.20
2023-02-08T14:45:00.319Z,5.47
2023-02-08T14:48:01.895Z,5.27
2023-02-08T14:50:43.390Z,5.53
2023-02-08T14:53:26.115Z,4.60
2023-02-08T14:56:00.113Z,5.97
2023-02-08T14:58:31.263Z,5.80
2023-02-08T15:01:03.216Z,4.80
2023-02-08T15:03:33.077Z,4.37
2023-02-08T15:06:49.952Z,6.20
2023-02-08T15:09:21.541Z,5.57
2023-02-08T15:11:54.307Z,5.33
2023-02-08T15:14:22.868Z,6.73
2023-02-08T15:16:53.904Z,6.40
2023-02-08T15:19:25.242Z,6.40
2023-02-08T15:21:53.168Z,6.40
2023-02-08T15:24:23.392Z,5.67
2023-02-08T15:26:53.408Z,7.10
2023-02-08T15:29:30.053Z,6.83
2023-02-08T15:32:05.314Z,6.43
2023-02-08T15:34:33.539Z,6.47
2023-02-08T15:37:01.317Z,6.90
2023-02-08T15:39:34.770Z,6.80
2023-02-08T15:42:03.150Z,6.83
2023-02-08T15:44:33.280Z,8.03
2023-02-08T15:47:03.342Z,6.63
2023-02-08T15:49:36.473Z,6.83
2023-02-08T15:52:05.393Z,7.87
2023-02-08T15:54:33.275Z,6.90
2023-02-08T15:57:04.124Z,7.33
2023-02-08T15:59:34.641Z,7.83
2023-02-08T16:02:19.467Z,8.93
2023-02-08T16:04:48.888Z,7.60
2023-02-08T16:07:25.270Z,7.80
2023-02-08T16:09:53.363Z,8.43
2023-02-08T16:12:23.243Z,7.67
2023-02-08T16:14:52.952Z,6.73
2023-02-08T16:17:34.209Z,7.87
2023-02-08T16:20:03.487Z,7.73
2023-02-08T16:22:33.689Z,7.50
2023-02-08T16:25:32.950Z,8.73
2023-02-08T16:28:00.985Z,8.70
2023-02-08T16:30:28.908Z,8.63
2023-02-08T16:32:56.860Z,9.23
2023-02-08T16:35:30.047Z,9.17
2023-02-08T16:38:00.722Z,9.27
2023-02-08T16:40:48.948Z,7.37
2023-02-08T16:43:18.837Z,7.73
2023-02-08T16:45:46.720Z,8.10
2023-02-08T16:48:33.279Z,10.33
2023-02-08T16:51:02.830Z,10.07
2023-02-08T16:53:40.388Z,11.00
2023-02-08T16:56:11.126Z,8.70
2023-02-08T16:58:39.188Z,9.93
2023-02-08T17:01:07.757Z,8.90
2023-02-08T17:03:37.948Z,7.77
2023-02-08T17:06:07.827Z,8.30
2023-02-08T17:08:37.426Z,9.67
2023-02-08T17:11:05.383Z,9.03
2023-02-08T17:13:33.132Z,8.60
2023-02-08T17:16:01.217Z,8.90
2023-02-08T17:18:29.068Z,11.53
2023-02-08T17:20:59.725Z,10.73
2023-02-08T17:23:29.136Z,11.23
2023-02-08T17:25:58.064Z,12.60
2023-02-08T17:28:25.929Z,16.17
2023-02-08T17:30:54.085Z,11.83
2023-02-08T17:33:21.930Z,10.50
2023-02-08T17:35:51.905Z,11.27
2023-02-08T17:38:20.255Z,11.37
2023-02-08T17:40:49.509Z,11.50
2023-02-08T17:43:17.731Z,12.47
2023-02-08T17:45:45.861Z,14.10
2023-02-08T17:48:15.201Z,23.37
2023-02-08T17:50:46.436Z,26.30
2023-02-08T17:53:15.814Z,16.93
2023-02-08T17:55:44.240Z,14.03
2023-02-08T17:58:14.106Z,13.53
2023-02-08T18:00:42.119Z,13.37
2023-02-08T18:03:10.037Z,12.50
2023-02-08T18:05:37.886Z,12.97
2023-02-08T18:08:06.010Z,12.27
2023-02-08T18:10:34.231Z,12.70
2023-02-08T18:13:02.135Z,12.43
2023-02-08T18:15:31.242Z,11.57
2023-02-08T18:17:58.973Z,11.00
2023-02-08T18:20:26.695Z,14.97
2023-02-08T18:22:54.426Z,13.67
2023-02-08T18:25:22.164Z,14.67
2023-02-08T18:27:50.073Z,13.30
2023-02-08T18:30:17.934Z,12.73
2023-02-08T18:32:47.247Z,12.40
2023-02-08T18:35:15.019Z,12.10
2023-02-08T18:37:42.750Z,10.57
2023-02-08T18:40:12.267Z,11.60
2023-02-08T18:42:40.048Z,10.33
2023-02-08T18:45:08.659Z,10.17
2023-02-08T18:47:37.080Z,10.90
2023-02-08T18:50:07.040Z,11.43
2023-02-08T18:52:35.330Z,13.53
2023-02-08T18:55:03.294Z,11.73
2023-02-08T18:57:31.048Z,13.30
2023-02-08T18:59:58.775Z,12.63
2023-02-08T19:02:27.380Z,12.40
2023-02-08T19:04:55.117Z,13.33
2023-02-08T19:07:24.295Z,13.43
2023-02-08T19:09:52.051Z,13.13
2023-02-08T19:12:21.036Z,12.50
2023-02-08T19:14:50.528Z,13.50
2023-02-08T19:17:18.654Z,12.77
2023-02-08T19:19:46.536Z,14.00
2023-02-08T19:22:14.490Z,16.53
2023-02-08T19:24:43.593Z,19.10
2023-02-08T19:27:11.343Z,17.20
2023-02-08T19:29:39.057Z,18.10
2023-02-08T19:32:07.976Z,14.97
2023-02-08T19:34:35.784Z,13.57
2023-02-08T19:37:03.647Z,15.00
2023-02-08T19:39:31.452Z,16.20
2023-02-08T19:42:00.719Z,15.73
2023-02-08T19:44:30.504Z,13.60
2023-02-08T19:46:59.081Z,13.93
2023-02-08T19:49:28.336Z,14.13
2023-02-08T19:51:57.081Z,13.03
2023-02-08T19:54:25.262Z,12.23
2023-02-08T19:56:54.692Z,14.17
2023-02-08T19:59:25.783Z,14.17
2023-02-08T20:01:54.094Z,18.17
2023-02-08T20:04:22.164Z,26.03
2023-02-08T20:06:52.460Z,19.33
2023-02-08T20:09:20.681Z,13.23
2023-02-08T20:11:57.946Z,17.03
2023-02-08T20:14:28.935Z,12.10
2023-02-08T20:16:56.768Z,13.63
2023-02-08T20:19:25.015Z,15.73
2023-02-08T20:21:53.360Z,21.80
2023-02-08T20:24:21.584Z,20.90
2023-02-08T20:26:49.977Z,21.27
2023-02-08T20:29:18.504Z,16.83
2023-02-08T20:31:51.988Z,13.00
2023-02-08T20:34:19.873Z,17.17
2023-02-08T20:37:05.302Z,18.40
2023-02-08T20:39:33.969Z,14.70
2023-02-08T20:42:01.752Z,12.53
2023-02-08T20:44:29.502Z,14.27
2023-02-08T20:46:58.599Z,16.07
2023-02-08T20:49:26.821Z,17.30
2023-02-08T20:51:55.250Z,16.10
2023-02-08T20:54:24.869Z,15.57
2023-02-08T20:56:53.889Z,15.10
2023-02-08T20:59:21.970Z,15.83
2023-02-08T21:01:50.221Z,16.43
2023-02-08T21:04:23.131Z,15.47
2023-02-08T21:06:51.786Z,17.63
2023-02-08T21:09:20.318Z,16.37
2023-02-08T21:11:48.274Z,19.13
2023-02-08T21:14:19.015Z,17.50
2023-02-08T21:16:48.338Z,15.80
2023-02-08T21:19:17.096Z,17.37
2023-02-08T21:21:46.248Z,18.13
2023-02-08T21:24:14.494Z,17.53
2023-02-08T21:26:42.409Z,15.77
2023-02-08T21:29:10.416Z,14.63
2023-02-08T21:31:38.324Z,14.40
2023-02-08T21:34:06.908Z,15.40
2023-02-08T21:36:35.081Z,14.80
2023-02-08T21:39:04.772Z,13.70
2023-02-08T21:41:34.482Z,11.70
2023-02-08T21:44:04.364Z,14.03
2023-02-08T21:46:33.090Z,15.83
2023-02-08T21:49:19.024Z,17.07
2023-02-08T21:52:04.991Z,16.63
2023-02-08T21:54:53.082Z,17.00
2023-02-08T21:57:22.757Z,18.50
2023-02-08T21:59:52.159Z,14.87
2023-02-08T22:02:21.907Z,13.93
2023-02-08T22:04:50.328Z,11.97
2023-02-08T22:07:18.204Z,14.10
2023-02-08T22:09:47.388Z,14.97
2023-02-08T22:12:17.454Z,13.77
2023-02-08T22:14:45.358Z,15.67
2023-02-08T22:17:13.161Z,13.70
2023-02-08T22:19:41.871Z,13.70
2023-02-08T22:22:10.177Z,13.60
2023-02-08T22:24:38.143Z,10.57
2023-02-08T22:27:07.374Z,9.37
2023-02-08T22:29:35.277Z,9.87
2023-02-08T22:32:03.167Z,11.73
2023-02-08T22:34:31.053Z,11.03
2023-02-08T22:36:58.880Z,12.13
2023-02-08T22:39:26.638Z,11.07
2023-02-08T22:41:54.430Z,12.43
2023-02-08T22:44:23.547Z,12.17
2023-02-08T22:46:51.337Z,10.60
2023-02-08T22:49:19.105Z,11.53
2023-02-08T22:51:46.894Z,10.73
2023-02-08T22:54:14.659Z,13.00
2023-02-08T22:56:42.427Z,12.07
2023-02-08T22:59:10.255Z,10.73
2023-02-08T23:01:39.512Z,11.30
2023-02-08T23:04:07.345Z,10.27
2023-02-08T23:06:35.550Z,11.17
2023-02-08T23:09:04.912Z,11.77
2023-02-08T23:11:33.180Z,12.43
2023-02-08T23:14:01.462Z,12.60
2023-02-08T23:16:29.267Z,13.43
2023-02-08T23:18:58.402Z,14.13
2023-02-08T23:21:26.173Z,22.03
2023-02-08T23:23:54.240Z,14.63
2023-02-08T23:26:23.454Z,13.27
2023-02-08T23:28:52.610Z,13.17
2023-02-08T23:31:21.399Z,14.20
2023-02-08T23:33:49.469Z,13.73
2023-02-08T23:36:21.873Z,12.30
2023-02-08T23:38:50.541Z,13.67
2023-02-08T23:41:20.866Z,11.33
2023-02-08T23:43:50.070Z,13.30
2023-02-08T23:46:20.314Z,13.13
2023-02-08T23:48:48.827Z,13.97
2023-02-08T23:51:19.418Z,15.00
2023-02-08T23:53:47.193Z,11.70
2023-02-08T23:56:16.846Z,14.77
2023-02-08T23:58:45.949Z,13.50
